sensor_id;sensor_type;location;lat;lon;timestamp;temperature;humidity
67502;SHT30;54349;52.528;19.760;2023-09-30T00:00:05;21.77;55.17
67502;SHT30;54349;52.528;19.760;2023-09-30T00:02:58;21.96;54.81
67502;SHT30;54349;52.528;19.760;2023-09-30T00:05:28;21.79;54.72
67502;SHT30;54349;52.528;19.760;2023-09-30T00:07:59;21.67;54.71
67502;SHT30;54349;52.528;19.760;2023-09-30T00:10:28;21.57;54.44
67502;SHT30;54349;52.528;19.760;2023-09-30T00:12:57;21.48;54.47
67502;SHT30;54349;52.528;19.760;2023-09-30T00:15:26;21.41;54.49
67502;SHT30;54349;52.528;19.760;2023-09-30T00:17:55;21.37;54.44
67502;SHT30;54349;52.528;19.760;2023-09-30T00:20:23;21.31;54.40
67502;SHT30;54349;52.528;19.760;2023-09-30T00:22:52;21.27;54.34
67502;SHT30;54349;52.528;19.760;2023-09-30T00:25:20;21.23;54.34
67502;SHT30;54349;52.528;19.760;2023-09-30T00:27:48;21.18;54.33
67502;SHT30;54349;52.528;19.760;2023-09-30T00:30:17;21.17;54.38
67502;SHT30;54349;52.528;19.760;2023-09-30T00:32:45;21.16;54.34
67502;SHT30;54349;52.528;19.760;2023-09-30T00:35:15;21.15;54.31
67502;SHT30;54349;52.528;19.760;2023-09-30T00:37:44;21.14;54.29
67502;SHT30;54349;52.528;19.760;2023-09-30T00:40:12;21.10;54.27
67502;SHT30;54349;52.528;19.760;2023-09-30T00:42:41;21.09;54.21
67502;SHT30;54349;52.528;19.760;2023-09-30T00:45:10;21.08;54.17
67502;SHT30;54349;52.528;19.760;2023-09-30T00:47:40;21.06;54.10
67502;SHT30;54349;52.528;19.760;2023-09-30T00:50:09;21.03;54.10
67502;SHT30;54349;52.528;19.760;2023-09-30T00:52:40;20.98;54.40
67502;SHT30;54349;52.528;19.760;2023-09-30T00:55:10;21.30;55.27
67502;SHT30;54349;52.528;19.760;2023-09-30T00:57:41;21.86;54.86
67502;SHT30;54349;52.528;19.760;2023-09-30T01:00:12;22.03;54.91
67502;SHT30;54349;52.528;19.760;2023-09-30T01:02:42;21.79;55.27
67502;SHT30;54349;52.528;19.760;2023-09-30T01:05:12;21.55;55.27
67502;SHT30;54349;52.528;19.760;2023-09-30T01:07:41;21.36;55.10
67502;SHT30;54349;52.528;19.760;2023-09-30T01:10:09;21.47;56.00
67502;SHT30;54349;52.528;19.760;2023-09-30T01:12:38;21.88;55.58
67502;SHT30;54349;52.528;19.760;2023-09-30T01:15:06;22.18;55.02
67502;SHT30;54349;52.528;19.760;2023-09-30T01:17:35;22.02;55.10
67502;SHT30;54349;52.528;19.760;2023-09-30T01:20:05;21.73;55.28
67502;SHT30;54349;52.528;19.760;2023-09-30T01:22:34;21.49;55.14
67502;SHT30;54349;52.528;19.760;2023-09-30T01:25:03;21.44;56.01
67502;SHT30;54349;52.528;19.760;2023-09-30T01:27:32;21.79;55.83
67502;SHT30;54349;52.528;19.760;2023-09-30T01:30:01;22.13;55.36
67502;SHT30;54349;52.528;19.760;2023-09-30T01:32:29;22.15;54.87
67502;SHT30;54349;52.528;19.760;2023-09-30T01:34:57;21.83;55.10
67502;SHT30;54349;52.528;19.760;2023-09-30T01:37:29;21.55;55.45
67502;SHT30;54349;52.528;19.760;2023-09-30T01:39:57;21.60;56.16
67502;SHT30;54349;52.528;19.760;2023-09-30T01:42:26;21.94;55.80
67502;SHT30;54349;52.528;19.760;2023-09-30T01:44:54;22.23;54.80
67502;SHT30;54349;52.528;19.760;2023-09-30T01:47:24;22.10;54.03
67502;SHT30;54349;52.528;19.760;2023-09-30T01:50:03;21.77;55.39
67502;SHT30;54349;52.528;19.760;2023-09-30T01:52:34;21.91;55.65
67502;SHT30;54349;52.528;19.760;2023-09-30T01:55:02;22.21;55.33
67502;SHT30;54349;52.528;19.760;2023-09-30T01:57:33;22.34;54.70
67502;SHT30;54349;52.528;19.760;2023-09-30T02:00:01;22.03;54.66
67502;SHT30;54349;52.528;19.760;2023-09-30T02:02:39;21.78;55.58
67502;SHT30;54349;52.528;19.760;2023-09-30T02:05:08;21.98;55.76
67502;SHT30;54349;52.528;19.760;2023-09-30T02:07:37;22.27;55.35
67502;SHT30;54349;52.528;19.760;2023-09-30T02:10:06;22.35;54.54
67502;SHT30;54349;52.528;19.760;2023-09-30T02:12:36;22.00;54.62
67502;SHT30;54349;52.528;19.760;2023-09-30T02:15:06;21.80;55.71
67502;SHT30;54349;52.528;19.760;2023-09-30T02:17:35;22.01;55.77
67502;SHT30;54349;52.528;19.760;2023-09-30T02:20:04;22.30;55.31
67502;SHT30;54349;52.528;19.760;2023-09-30T02:22:41;22.32;54.60
67502;SHT30;54349;52.528;19.760;2023-09-30T02:25:12;21.95;54.81
67502;SHT30;54349;52.528;19.760;2023-09-30T02:27:41;21.71;55.91
67502;SHT30;54349;52.528;19.760;2023-09-30T02:30:11;21.92;56.03
67502;SHT30;54349;52.528;19.760;2023-09-30T02:32:44;22.20;55.60
67502;SHT30;54349;52.528;19.760;2023-09-30T02:35:16;22.39;54.95
67502;SHT30;54349;52.528;19.760;2023-09-30T02:37:45;22.13;54.82
67502;SHT30;54349;52.528;19.760;2023-09-30T02:40:14;21.85;55.71
67502;SHT30;54349;52.528;19.760;2023-09-30T02:42:46;22.00;55.98
67502;SHT30;54349;52.528;19.760;2023-09-30T02:45:17;22.27;55.59
67502;SHT30;54349;52.528;19.760;2023-09-30T02:47:47;22.42;54.83
67502;SHT30;54349;52.528;19.760;2023-09-30T02:50:15;22.09;54.74
67502;SHT30;54349;52.528;19.760;2023-09-30T02:52:44;21.86;55.94
67502;SHT30;54349;52.528;19.760;2023-09-30T02:55:13;22.06;56.01
67502;SHT30;54349;52.528;19.760;2023-09-30T02:57:44;22.33;55.59
67502;SHT30;54349;52.528;19.760;2023-09-30T03:00:14;22.43;54.72
67502;SHT30;54349;52.528;19.760;2023-09-30T03:02:53;22.08;54.75
67502;SHT30;54349;52.528;19.760;2023-09-30T03:05:24;21.87;56.11
67502;SHT30;54349;52.528;19.760;2023-09-30T03:07:53;22.09;56.01
67502;SHT30;54349;52.528;19.760;2023-09-30T03:10:23;22.34;55.63
67502;SHT30;54349;52.528;19.760;2023-09-30T03:12:55;22.38;54.70
67502;SHT30;54349;52.528;19.760;2023-09-30T03:15:30;21.99;54.90
67502;SHT30;54349;52.528;19.760;2023-09-30T03:18:01;21.81;56.33
67502;SHT30;54349;52.528;19.760;2023-09-30T03:20:32;22.06;56.27
67502;SHT30;54349;52.528;19.760;2023-09-30T03:23:03;22.32;55.83
67502;SHT30;54349;52.528;19.760;2023-09-30T03:25:33;22.44;55.04
67502;SHT30;54349;52.528;19.760;2023-09-30T03:28:03;22.11;55.17
67502;SHT30;54349;52.528;19.760;2023-09-30T03:30:34;21.98;56.41
67502;SHT30;54349;52.528;19.760;2023-09-30T03:33:03;22.20;56.22
67502;SHT30;54349;52.528;19.760;2023-09-30T03:35:33;22.43;55.81
67502;SHT30;54349;52.528;19.760;2023-09-30T03:38:01;22.40;54.99
67502;SHT30;54349;52.528;19.760;2023-09-30T03:40:32;22.00;55.35
67502;SHT30;54349;52.528;19.760;2023-09-30T03:43:02;21.88;56.74
67502;SHT30;54349;52.528;19.760;2023-09-30T03:45:31;22.11;56.65
67502;SHT30;54349;52.528;19.760;2023-09-30T03:48:01;22.35;56.19
67502;SHT30;54349;52.528;19.760;2023-09-30T03:50:30;22.40;55.29
67502;SHT30;54349;52.528;19.760;2023-09-30T03:53:02;22.04;55.53
67502;SHT30;54349;52.528;19.760;2023-09-30T03:55:33;21.77;56.69
67502;SHT30;54349;52.528;19.760;2023-09-30T03:58:01;21.94;57.07
67502;SHT30;54349;52.528;19.760;2023-09-30T04:00:31;22.19;56.70
67502;SHT30;54349;52.528;19.760;2023-09-30T04:03:00;22.39;56.00
67502;SHT30;54349;52.528;19.760;2023-09-30T04:05:31;22.17;55.49
67502;SHT30;54349;52.528;19.760;2023-09-30T04:08:04;21.88;56.74
67502;SHT30;54349;52.528;19.760;2023-09-30T04:10:33;22.04;57.09
67502;SHT30;54349;52.528;19.760;2023-09-30T04:13:02;22.26;56.76
67502;SHT30;54349;52.528;19.760;2023-09-30T04:15:31;22.43;56.02
67502;SHT30;54349;52.528;19.760;2023-09-30T04:17:59;22.17;55.47
67502;SHT30;54349;52.528;19.760;2023-09-30T04:20:29;21.84;56.57
67502;SHT30;54349;52.528;19.760;2023-09-30T04:22:58;21.96;57.40
67502;SHT30;54349;52.528;19.760;2023-09-30T04:25:26;22.19;57.13
67502;SHT30;54349;52.528;19.760;2023-09-30T04:27:55;22.38;56.53
67502;SHT30;54349;52.528;19.760;2023-09-30T04:30:23;22.22;55.58
67502;SHT30;54349;52.528;19.760;2023-09-30T04:32:51;21.93;56.92
67502;SHT30;54349;52.528;19.760;2023-09-30T04:35:20;22.08;57.36
67502;SHT30;54349;52.528;19.760;2023-09-30T04:37:49;22.31;57.06
67502;SHT30;54349;52.528;19.760;2023-09-30T04:40:19;22.43;56.20
67502;SHT30;54349;52.528;19.760;2023-09-30T04:42:49;22.12;55.75
67502;SHT30;54349;52.528;19.760;2023-09-30T04:45:18;21.76;56.78
67502;SHT30;54349;52.528;19.760;2023-09-30T04:47:53;21.85;57.98
67502;SHT30;54349;52.528;19.760;2023-09-30T04:50:24;22.09;57.69
67502;SHT30;54349;52.528;19.760;2023-09-30T04:52:52;22.31;57.31
67502;SHT30;54349;52.528;19.760;2023-09-30T04:55:21;22.26;55.93
67502;SHT30;54349;52.528;19.760;2023-09-30T04:57:50;21.89;56.56
67502;SHT30;54349;52.528;19.760;2023-09-30T05:00:19;21.88;58.02
67502;SHT30;54349;52.528;19.760;2023-09-30T05:02:57;22.10;57.84
67502;SHT30;54349;52.528;19.760;2023-09-30T05:05:27;22.31;57.55
67502;SHT30;54349;52.528;19.760;2023-09-30T05:07:56;22.34;56.27
67502;SHT30;54349;52.528;19.760;2023-09-30T05:10:25;21.97;56.48
67502;SHT30;54349;52.528;19.760;2023-09-30T05:12:55;21.85;58.01
67502;SHT30;54349;52.528;19.760;2023-09-30T05:15:23;22.07;58.00
67502;SHT30;54349;52.528;19.760;2023-09-30T05:17:51;22.28;57.75
67502;SHT30;54349;52.528;19.760;2023-09-30T05:20:20;22.35;56.67
67502;SHT30;54349;52.528;19.760;2023-09-30T05:22:50;22.00;56.48
67502;SHT30;54349;52.528;19.760;2023-09-30T05:25:18;21.82;58.16
67502;SHT30;54349;52.528;19.760;2023-09-30T05:27:48;22.02;58.26
67502;SHT30;54349;52.528;19.760;2023-09-30T05:30:17;22.24;58.01
67502;SHT30;54349;52.528;19.760;2023-09-30T05:32:49;22.35;57.07
67502;SHT30;54349;52.528;19.760;2023-09-30T05:35:21;22.06;56.76
67502;SHT30;54349;52.528;19.760;2023-09-30T05:37:51;21.79;58.04
67502;SHT30;54349;52.528;19.760;2023-09-30T05:40:21;21.96;58.45
67502;SHT30;54349;52.528;19.760;2023-09-30T05:42:54;22.19;58.22
67502;SHT30;54349;52.528;19.760;2023-09-30T05:45:32;22.36;57.53
67502;SHT30;54349;52.528;19.760;2023-09-30T05:48:08;22.13;56.93
67502;SHT30;54349;52.528;19.760;2023-09-30T05:50:45;21.78;57.75
67502;SHT30;54349;52.528;19.760;2023-09-30T05:53:16;21.87;58.56
67502;SHT30;54349;52.528;19.760;2023-09-30T05:55:49;22.11;58.41
67502;SHT30;54349;52.528;19.760;2023-09-30T05:58:23;22.32;58.07
67502;SHT30;54349;52.528;19.760;2023-09-30T06:00:58;22.30;56.95
67502;SHT30;54349;52.528;19.760;2023-09-30T06:03:39;21.90;57.24
67502;SHT30;54349;52.528;19.760;2023-09-30T06:06:16;21.82;58.68
67502;SHT30;54349;52.528;19.760;2023-09-30T06:08:47;22.06;58.64
67502;SHT30;54349;52.528;19.760;2023-09-30T06:11:21;22.26;58.32
67502;SHT30;54349;52.528;19.760;2023-09-30T06:13:58;22.35;57.40
67502;SHT30;54349;52.528;19.760;2023-09-30T06:16:38;22.00;57.22
67502;SHT30;54349;52.528;19.760;2023-09-30T06:19:09;21.73;58.59
67502;SHT30;54349;52.528;19.760;2023-09-30T06:21:41;21.92;58.95
67502;SHT30;54349;52.528;19.760;2023-09-30T06:24:17;22.15;58.59
67502;SHT30;54349;52.528;19.760;2023-09-30T06:26:57;22.36;58.18
67502;SHT30;54349;52.528;19.760;2023-09-30T06:29:32;22.17;57.33
67502;SHT30;54349;52.528;19.760;2023-09-30T06:32:18;21.79;58.25
67502;SHT30;54349;52.528;19.760;2023-09-30T06:34:53;21.87;59.15
67502;SHT30;54349;52.528;19.760;2023-09-30T06:37:37;22.13;58.83
67502;SHT30;54349;52.528;19.760;2023-09-30T06:40:14;22.33;58.46
67502;SHT30;54349;52.528;19.760;2023-09-30T06:42:56;22.16;57.56
67502;SHT30;54349;52.528;19.760;2023-09-30T06:45:30;21.88;58.85
67502;SHT30;54349;52.528;19.760;2023-09-30T06:48:16;22.03;59.11
67502;SHT30;54349;52.528;19.760;2023-09-30T06:50:49;22.25;58.90
67502;SHT30;54349;52.528;19.760;2023-09-30T06:53:30;22.38;58.11
67502;SHT30;54349;52.528;19.760;2023-09-30T06:56:07;22.07;57.76
67502;SHT30;54349;52.528;19.760;2023-09-30T06:58:53;21.85;59.25
67502;SHT30;54349;52.528;19.760;2023-09-30T07:01:30;22.05;59.30
67502;SHT30;54349;52.528;19.760;2023-09-30T07:04:04;22.27;59.09
67502;SHT30;54349;52.528;19.760;2023-09-30T07:06:48;22.39;58.20
67502;SHT30;54349;52.528;19.760;2023-09-30T07:09:26;22.06;57.99
67502;SHT30;54349;52.528;19.760;2023-09-30T07:12:03;21.90;59.59
67502;SHT30;54349;52.528;19.760;2023-09-30T07:14:54;22.12;59.48
67502;SHT30;54349;52.528;19.760;2023-09-30T07:17:41;22.34;59.17
67502;SHT30;54349;52.528;19.760;2023-09-30T07:20:15;22.32;58.03
67502;SHT30;54349;52.528;19.760;2023-09-30T07:22:53;21.95;58.45
67502;SHT30;54349;52.528;19.760;2023-09-30T07:25:44;21.92;59.85
67502;SHT30;54349;52.528;19.760;2023-09-30T07:28:31;22.15;59.58
67502;SHT30;54349;52.528;19.760;2023-09-30T07:31:14;22.37;59.30
67502;SHT30;54349;52.528;19.760;2023-09-30T07:34:06;22.27;58.10
67502;SHT30;54349;52.528;19.760;2023-09-30T07:36:40;21.89;58.75
67502;SHT30;54349;52.528;19.760;2023-09-30T07:39:16;21.87;60.08
67502;SHT30;54349;52.528;19.760;2023-09-30T07:41:50;22.10;59.92
67502;SHT30;54349;52.528;19.760;2023-09-30T07:44:27;22.30;59.40
67502;SHT30;54349;52.528;19.760;2023-09-30T07:47:05;22.14;58.43
67502;SHT30;54349;52.528;19.760;2023-09-30T07:49:40;21.85;59.94
67502;SHT30;54349;52.528;19.760;2023-09-30T07:52:16;22.00;60.45
67502;SHT30;54349;52.528;19.760;2023-09-30T07:54:58;22.23;60.21
67502;SHT30;54349;52.528;19.760;2023-09-30T07:57:40;22.42;59.38
67502;SHT30;54349;52.528;19.760;2023-09-30T08:00:14;22.21;57.85
67502;SHT30;54349;52.528;19.760;2023-09-30T08:02:48;21.99;59.85
67502;SHT30;54349;52.528;19.760;2023-09-30T08:05:21;22.15;60.04
67502;SHT30;54349;52.528;19.760;2023-09-30T08:07:56;22.35;59.82
67502;SHT30;54349;52.528;19.760;2023-09-30T08:10:34;22.42;58.93
67502;SHT30;54349;52.528;19.760;2023-09-30T08:13:09;22.08;58.73
67502;SHT30;54349;52.528;19.760;2023-09-30T08:15:51;21.97;59.98
67502;SHT30;54349;52.528;19.760;2023-09-30T08:18:25;22.15;59.85
67502;SHT30;54349;52.528;19.760;2023-09-30T08:21:00;22.36;59.58
67502;SHT30;54349;52.528;19.760;2023-09-30T08:23:48;22.44;58.41
67502;SHT30;54349;52.528;19.760;2023-09-30T08:26:24;22.09;58.43
67502;SHT30;54349;52.528;19.760;2023-09-30T08:29:12;22.04;59.77
67502;SHT30;54349;52.528;19.760;2023-09-30T08:31:52;22.25;59.55
67502;SHT30;54349;52.528;19.760;2023-09-30T08:34:31;22.43;59.25
67502;SHT30;54349;52.528;19.760;2023-09-30T08:37:09;22.46;58.02
67502;SHT30;54349;52.528;19.760;2023-09-30T08:40:10;22.03;58.66
67502;SHT30;54349;52.528;19.760;2023-09-30T08:42:45;22.03;59.54
67502;SHT30;54349;52.528;19.760;2023-09-30T08:45:32;22.24;59.18
67502;SHT30;54349;52.528;19.760;2023-09-30T08:48:10;22.43;58.70
67502;SHT30;54349;52.528;19.760;2023-09-30T08:50:47;22.46;57.58
67502;SHT30;54349;52.528;19.760;2023-09-30T08:53:38;22.08;58.08
67502;SHT30;54349;52.528;19.760;2023-09-30T08:56:19;22.13;58.70
67502;SHT30;54349;52.528;19.760;2023-09-30T08:59:00;22.31;58.35
67502;SHT30;54349;52.528;19.760;2023-09-30T09:01:37;22.47;57.93
67502;SHT30;54349;52.528;19.760;2023-09-30T09:04:31;22.48;56.53
67502;SHT30;54349;52.528;19.760;2023-09-30T09:07:07;22.15;57.69
67502;SHT30;54349;52.528;19.760;2023-09-30T09:09:39;22.24;58.05
67502;SHT30;54349;52.528;19.760;2023-09-30T09:12:21;22.43;57.81
67502;SHT30;54349;52.528;19.760;2023-09-30T09:15:08;22.60;57.49
67502;SHT30;54349;52.528;19.760;2023-09-30T09:17:59;22.49;56.61
67502;SHT30;54349;52.528;19.760;2023-09-30T09:20:40;22.10;57.65
67502;SHT30;54349;52.528;19.760;2023-09-30T09:23:19;22.15;58.25
67502;SHT30;54349;52.528;19.760;2023-09-30T09:26:01;22.37;58.36
67502;SHT30;54349;52.528;19.760;2023-09-30T09:28:47;22.53;57.93
67502;SHT30;54349;52.528;19.760;2023-09-30T09:31:32;22.21;57.57
67502;SHT30;54349;52.528;19.760;2023-09-30T09:34:14;21.89;58.86
67502;SHT30;54349;52.528;19.760;2023-09-30T09:36:46;22.05;59.69
67502;SHT30;54349;52.528;19.760;2023-09-30T09:39:28;22.28;59.56
67502;SHT30;54349;52.528;19.760;2023-09-30T09:42:03;22.49;58.79
67502;SHT30;54349;52.528;19.760;2023-09-30T09:44:41;22.28;57.69
67502;SHT30;54349;52.528;19.760;2023-09-30T09:47:15;21.89;58.24
67502;SHT30;54349;52.528;19.760;2023-09-30T09:50:02;21.95;59.22
67502;SHT30;54349;52.528;19.760;2023-09-30T09:52:44;22.23;58.76
67502;SHT30;54349;52.528;19.760;2023-09-30T09:55:33;22.47;58.03
67502;SHT30;54349;52.528;19.760;2023-09-30T09:58:18;22.39;56.80
67502;SHT30;54349;52.528;19.760;2023-09-30T10:01:14;21.95;57.09
67502;SHT30;54349;52.528;19.760;2023-09-30T10:03:48;21.93;58.16
67502;SHT30;54349;52.528;19.760;2023-09-30T10:06:38;22.23;58.30
67502;SHT30;54349;52.528;19.760;2023-09-30T10:09:20;22.50;57.47
67502;SHT30;54349;52.528;19.760;2023-09-30T10:12:00;22.44;56.36
67502;SHT30;54349;52.528;19.760;2023-09-30T10:14:42;22.02;56.33
67502;SHT30;54349;52.528;19.760;2023-09-30T10:17:17;21.72;56.94
67502;SHT30;54349;52.528;19.760;2023-09-30T10:20:06;21.89;57.48
67502;SHT30;54349;52.528;19.760;2023-09-30T10:22:40;22.22;57.19
67502;SHT30;54349;52.528;19.760;2023-09-30T10:25:33;22.48;56.72
67502;SHT30;54349;52.528;19.760;2023-09-30T10:31:17;22.01;56.04
67502;SHT30;54349;52.528;19.760;2023-09-30T10:36:47;21.84;57.12
67502;SHT30;54349;52.528;19.760;2023-09-30T10:39:53;22.20;56.38
67502;SHT30;54349;52.528;19.760;2023-09-30T10:42:50;22.50;55.64
67502;SHT30;54349;52.528;19.760;2023-09-30T10:48:32;21.92;55.44
67502;SHT30;54349;52.528;19.760;2023-09-30T10:51:14;21.60;55.56
67502;SHT30;54349;52.528;19.760;2023-09-30T10:54:08;21.74;55.98
67502;SHT30;54349;52.528;19.760;2023-09-30T10:56:52;22.07;55.37
67502;SHT30;54349;52.528;19.760;2023-09-30T10:59:25;22.36;54.70
67502;SHT30;54349;52.528;19.760;2023-09-30T11:02:01;22.43;54.49
67502;SHT30;54349;52.528;19.760;2023-09-30T11:04:46;22.07;54.63
67502;SHT30;54349;52.528;19.760;2023-09-30T11:07:36;21.71;55.05
67502;SHT30;54349;52.528;19.760;2023-09-30T11:10:17;21.90;54.87
67502;SHT30;54349;52.528;19.760;2023-09-30T11:13:10;22.25;53.70
67502;SHT30;54349;52.528;19.760;2023-09-30T11:15:48;22.49;52.83
67502;SHT30;54349;52.528;19.760;2023-09-30T11:18:40;22.26;53.58
67502;SHT30;54349;52.528;19.760;2023-09-30T11:21:17;21.89;53.77
67502;SHT30;54349;52.528;19.760;2023-09-30T11:24:01;21.56;53.52
67502;SHT30;54349;52.528;19.760;2023-09-30T11:26:35;21.46;54.15
67502;SHT30;54349;52.528;19.760;2023-09-30T11:29:19;21.80;53.81
67502;SHT30;54349;52.528;19.760;2023-09-30T11:32:01;22.17;53.12
67502;SHT30;54349;52.528;19.760;2023-09-30T11:34:39;22.42;52.75
67502;SHT30;54349;52.528;19.760;2023-09-30T11:37:31;22.17;53.17
67502;SHT30;54349;52.528;19.760;2023-09-30T11:40:11;21.80;53.32
67502;SHT30;54349;52.528;19.760;2023-09-30T11:43:09;21.69;53.78
67502;SHT30;54349;52.528;19.760;2023-09-30T11:45:46;22.06;53.23
67502;SHT30;54349;52.528;19.760;2023-09-30T11:48:55;22.44;52.61
67502;SHT30;54349;52.528;19.760;2023-09-30T11:51:59;22.38;53.04
67502;SHT30;54349;52.528;19.760;2023-09-30T11:54:33;22.00;53.16
67502;SHT30;54349;52.528;19.760;2023-09-30T11:57:16;21.66;52.72
67502;SHT30;54349;52.528;19.760;2023-09-30T11:59:48;21.56;52.61
67502;SHT30;54349;52.528;19.760;2023-09-30T12:02:21;21.85;52.02
67502;SHT30;54349;52.528;19.760;2023-09-30T12:04:51;22.14;51.21
67502;SHT30;54349;52.528;19.760;2023-09-30T12:07:22;22.41;50.55
67502;SHT30;54349;52.528;19.760;2023-09-30T12:09:51;22.42;51.19
67502;SHT30;54349;52.528;19.760;2023-09-30T12:12:20;22.05;51.57
67502;SHT30;54349;52.528;19.760;2023-09-30T12:14:57;21.70;51.93
67502;SHT30;54349;52.528;19.760;2023-09-30T12:17:32;21.61;52.20
67502;SHT30;54349;52.528;19.760;2023-09-30T12:20:01;21.93;52.00
67502;SHT30;54349;52.528;19.760;2023-09-30T12:22:31;22.23;51.51
67502;SHT30;54349;52.528;19.760;2023-09-30T12:25:00;22.46;51.56
67502;SHT30;54349;52.528;19.760;2023-09-30T12:27:29;22.27;52.33
67502;SHT30;54349;52.528;19.760;2023-09-30T12:29:57;21.88;52.62
67502;SHT30;54349;52.528;19.760;2023-09-30T12:32:26;21.84;52.80
67502;SHT30;54349;52.528;19.760;2023-09-30T12:34:55;22.12;52.45
67502;SHT30;54349;52.528;19.760;2023-09-30T12:37:23;22.40;52.03
67502;SHT30;54349;52.528;19.760;2023-09-30T12:39:51;22.53;52.26
67502;SHT30;54349;52.528;19.760;2023-09-30T12:42:20;22.21;52.75
67502;SHT30;54349;52.528;19.760;2023-09-30T12:44:48;21.83;53.08
67502;SHT30;54349;52.528;19.760;2023-09-30T12:47:17;21.85;53.21
67502;SHT30;54349;52.528;19.760;2023-09-30T12:49:45;22.11;52.79
67502;SHT30;54349;52.528;19.760;2023-09-30T12:52:13;22.37;52.17
67502;SHT30;54349;52.528;19.760;2023-09-30T12:54:42;22.31;52.79
67502;SHT30;54349;52.528;19.760;2023-09-30T12:57:10;21.94;53.13
67502;SHT30;54349;52.528;19.760;2023-09-30T12:59:41;21.80;53.27
67502;SHT30;54349;52.528;19.760;2023-09-30T13:02:09;22.04;52.94
67502;SHT30;54349;52.528;19.760;2023-09-30T13:04:39;22.30;52.45
67502;SHT30;54349;52.528;19.760;2023-09-30T13:07:12;22.42;52.34
67502;SHT30;54349;52.528;19.760;2023-09-30T13:09:41;22.09;52.88
67502;SHT30;54349;52.528;19.760;2023-09-30T13:12:11;21.85;53.17
67502;SHT30;54349;52.528;19.760;2023-09-30T13:14:39;22.03;52.66
67502;SHT30;54349;52.528;19.760;2023-09-30T13:17:08;22.27;52.17
67502;SHT30;54349;52.528;19.760;2023-09-30T13:19:37;22.47;52.01
67502;SHT30;54349;52.528;19.760;2023-09-30T13:22:05;22.24;52.61
67502;SHT30;54349;52.528;19.760;2023-09-30T13:24:45;21.87;53.01
67502;SHT30;54349;52.528;19.760;2023-09-30T13:27:14;21.95;52.95
67502;SHT30;54349;52.528;19.760;2023-09-30T13:29:45;22.19;52.48
67502;SHT30;54349;52.528;19.760;2023-09-30T13:32:20;22.42;52.01
67502;SHT30;54349;52.528;19.760;2023-09-30T13:34:50;22.41;52.60
67502;SHT30;54349;52.528;19.760;2023-09-30T13:37:22;22.01;53.16
67502;SHT30;54349;52.528;19.760;2023-09-30T13:39:56;21.81;53.38
67502;SHT30;54349;52.528;19.760;2023-09-30T13:42:25;22.02;52.76
67502;SHT30;54349;52.528;19.760;2023-09-30T13:44:56;22.26;51.93
67502;SHT30;54349;52.528;19.760;2023-09-30T13:47:26;22.36;52.09
67502;SHT30;54349;52.528;19.760;2023-09-30T13:49:56;22.03;52.91
67502;SHT30;54349;52.528;19.760;2023-09-30T13:52:30;21.87;52.84
67502;SHT30;54349;52.528;19.760;2023-09-30T13:55:02;22.06;52.19
67502;SHT30;54349;52.528;19.760;2023-09-30T13:57:34;22.28;51.91
67502;SHT30;54349;52.528;19.760;2023-09-30T14:00:04;22.37;51.96
67502;SHT30;54349;52.528;19.760;2023-09-30T14:02:39;22.04;52.31
67502;SHT30;54349;52.528;19.760;2023-09-30T14:05:08;21.98;52.19
67502;SHT30;54349;52.528;19.760;2023-09-30T14:07:39;22.18;51.88
67502;SHT30;54349;52.528;19.760;2023-09-30T14:10:09;22.39;51.55
67502;SHT30;54349;52.528;19.760;2023-09-30T14:12:39;22.50;51.43
67502;SHT30;54349;52.528;19.760;2023-09-30T14:15:12;22.15;52.09
67502;SHT30;54349;52.528;19.760;2023-09-30T14:17:46;22.04;52.00
67502;SHT30;54349;52.528;19.760;2023-09-30T14:20:17;22.24;51.71
67502;SHT30;54349;52.528;19.760;2023-09-30T14:22:51;22.43;51.18
67502;SHT30;54349;52.528;19.760;2023-09-30T14:25:21;22.52;51.37
67502;SHT30;54349;52.528;19.760;2023-09-30T14:27:50;22.16;52.08
67502;SHT30;54349;52.528;19.760;2023-09-30T14:30:20;21.92;52.43
67502;SHT30;54349;52.528;19.760;2023-09-30T14:32:50;22.08;52.09
67502;SHT30;54349;52.528;19.760;2023-09-30T14:35:20;22.29;51.66
67502;SHT30;54349;52.528;19.760;2023-09-30T14:37:52;22.47;51.23
67502;SHT30;54349;52.528;19.760;2023-09-30T14:40:24;22.27;51.84
67502;SHT30;54349;52.528;19.760;2023-09-30T14:42:53;21.99;52.08
67502;SHT30;54349;52.528;19.760;2023-09-30T14:45:23;22.13;51.78
67502;SHT30;54349;52.528;19.760;2023-09-30T14:47:53;22.33;51.39
67502;SHT30;54349;52.528;19.760;2023-09-30T14:50:23;22.49;50.55
67502;SHT30;54349;52.528;19.760;2023-09-30T14:52:54;22.25;51.31
67502;SHT30;54349;52.528;19.760;2023-09-30T14:55:24;22.10;51.40
67502;SHT30;54349;52.528;19.760;2023-09-30T14:57:55;22.26;51.13
67502;SHT30;54349;52.528;19.760;2023-09-30T15:00:25;22.45;50.91
67502;SHT30;54349;52.528;19.760;2023-09-30T15:03:01;22.57;50.90
67502;SHT30;54349;52.528;19.760;2023-09-30T15:05:36;22.23;51.63
67502;SHT30;54349;52.528;19.760;2023-09-30T15:08:11;22.04;51.82
67502;SHT30;54349;52.528;19.760;2023-09-30T15:10:48;22.19;51.50
67502;SHT30;54349;52.528;19.760;2023-09-30T15:13:18;22.39;51.15
67502;SHT30;54349;52.528;19.760;2023-09-30T15:15:47;22.48;51.21
67502;SHT30;54349;52.528;19.760;2023-09-30T15:18:19;22.15;51.74
67502;SHT30;54349;52.528;19.760;2023-09-30T15:20:57;22.01;51.92
67502;SHT30;54349;52.528;19.760;2023-09-30T15:23:35;22.19;51.59
67502;SHT30;54349;52.528;19.760;2023-09-30T15:26:06;22.40;51.19
67502;SHT30;54349;52.528;19.760;2023-09-30T15:28:37;22.45;51.24
67502;SHT30;54349;52.528;19.760;2023-09-30T15:31:06;22.08;51.92
67502;SHT30;54349;52.528;19.760;2023-09-30T15:33:45;22.02;51.98
67502;SHT30;54349;52.528;19.760;2023-09-30T15:36:15;22.22;51.67
67502;SHT30;54349;52.528;19.760;2023-09-30T15:38:46;22.41;51.24
67502;SHT30;54349;52.528;19.760;2023-09-30T15:41:15;22.39;51.43
67502;SHT30;54349;52.528;19.760;2023-09-30T15:43:50;22.03;52.01
67502;SHT30;54349;52.528;19.760;2023-09-30T15:46:34;22.07;51.94
67502;SHT30;54349;52.528;19.760;2023-09-30T15:49:04;22.28;51.41
67502;SHT30;54349;52.528;19.760;2023-09-30T15:51:35;22.47;50.44
67502;SHT30;54349;52.528;19.760;2023-09-30T15:54:11;22.32;50.52
67502;SHT30;54349;52.528;19.760;2023-09-30T15:56:47;21.94;51.03
67502;SHT30;54349;52.528;19.760;2023-09-30T15:59:24;22.03;50.77
67502;SHT30;54349;52.528;19.760;2023-09-30T16:01:54;22.27;50.13
67502;SHT30;54349;52.528;19.760;2023-09-30T16:04:28;22.45;49.62
67502;SHT30;54349;52.528;19.760;2023-09-30T16:07:01;22.23;50.16